Aérodrome :







RETROUVEZ-NOUS SUR...

 
LOGIN :

S'inscrire | Disclaimer

   EN    FR    IT 

 









Légende :    VFR   VFR Marginal   IFR   IFR Intensif   IFR Très Intensif
Visi : 
Plafond : 
>= 8 km
>= 3000ft
5 à 8 km
1000 à 3000 ft
1500m à 5 km
500 à 1000 ft
800 à 1500m
200 à 500 ft
< 800m
< 200 ft
Symboles :   Orages  Brouillard  Fortes neiges  Fortes précipitations  Vent > 20 kt






- Altitude de l'aérodrome : 108 ft
- Code IATA : YAY


CYAY - St Anthony

DERNIER METAR :
  • 151700Z AUTO 15011KT 9SM CLR 10/07 A3035 RMK SLP279

METARs EXPIRÉS :
  • 151600Z AUTO 16008KT 110V190 9SM CLR 12/08 A3035 RMK SLP280
  • 151500Z AUTO 06010KT 360V080 9SM CLR 12/06 A3035 RMK SLP282

TAF TAF CYAY
Valide du 15 à 14h jusqu'au 16 à 02h UTC


151338Z 1514/1602 04012KT P6SM SCT009
TEMPO 1514/1515 BKN009
FM151500 04010KT P6SM SCT020
TEMPO 1515/1517 BKN020
FM151700 09010KT P6SM SKC RMK FCST BASED ON AUTO OBS. NXT FCST BY 152000Z
FIR CZQX / Amérique du Nord



MET'MAP, la Météo Aéronautique d'un coup d'oeil ! - Copyright ORBIFLY Décembre 2007 - Disclaimer

ORBIFLY MET'MAP TEAM :

Programmation & Développement : Alexandra Zaïnal
Sur une idée originale de : Baudouin d'Aumeries
Assistance à la programmation : Marc-Olivier Méhu
Soutien technique & logistique : Manuel Goepfert

Contact : metmap@orbifly.com




SOURCES & CREDITS :

   NOAA